createdAt,value
2022-08-14T00:02:31.080Z,8.25
2022-08-14T00:04:59.680Z,3.83
2022-08-14T00:07:28.358Z,9.15
2022-08-14T00:10:49.217Z,9.02
2022-08-14T00:12:56.743Z,8.50
2022-08-14T00:15:43.387Z,10.05
2022-08-14T00:18:30.766Z,6.97
2022-08-14T00:21:03.208Z,7.07
2022-08-14T00:23:34.459Z,11.40
2022-08-14T00:26:06.822Z,5.75
2022-08-14T00:28:37.225Z,6.03
2022-08-14T00:31:08.192Z,6.80
2022-08-14T00:33:50.533Z,7.10
2022-08-14T00:36:46.964Z,6.40
2022-08-14T00:39:17.951Z,5.60
2022-08-14T00:41:47.593Z,7.20
2022-08-14T00:44:26.562Z,7.50
2022-08-14T00:47:01.453Z,6.32
2022-08-14T00:49:43.170Z,8.18
2022-08-14T00:54:57.982Z,6.80
2022-08-14T00:57:30.312Z,5.30
2022-08-14T01:00:00.807Z,4.90
2022-08-14T01:02:31.927Z,3.80
2022-08-14T01:05:07.974Z,7.32
2022-08-14T01:07:47.286Z,7.65
2022-08-14T01:10:19.285Z,6.90
2022-08-14T01:12:49.090Z,8.68
2022-08-14T01:15:19.008Z,3.40
2022-08-14T01:18:08.741Z,6.28
2022-08-14T01:20:55.355Z,6.43
2022-08-14T01:23:25.477Z,6.30
2022-08-14T01:26:11.673Z,7.85
2022-08-14T01:28:54.399Z,5.10
2022-08-14T01:31:30.955Z,5.88
2022-08-14T01:35:17.903Z,3.60
2022-08-14T01:36:55.728Z,5.93
2022-08-14T01:39:24.372Z,3.75
2022-08-14T01:42:01.070Z,8.15
2022-08-14T01:44:34.538Z,6.10
2022-08-14T01:47:22.185Z,6.82
2022-08-14T01:49:59.612Z,5.70
2022-08-14T01:52:59.055Z,6.45
2022-08-14T01:55:33.653Z,7.13
2022-08-14T01:58:19.815Z,7.35
2022-08-14T02:00:57.348Z,6.63
2022-08-14T02:03:30.815Z,4.03
2022-08-14T02:06:03.999Z,4.88
2022-08-14T02:08:52.622Z,14.82
2022-08-14T02:11:25.338Z,8.57
2022-08-14T02:14:07.078Z,9.33
2022-08-14T02:16:42.672Z,8.60
2022-08-14T02:19:15.280Z,4.90
2022-08-14T02:21:49.101Z,7.60
2022-08-14T02:24:39.112Z,8.80
2022-08-14T02:30:02.844Z,3.90
2022-08-14T02:32:37.310Z,7.05
2022-08-14T02:35:11.716Z,7.82
2022-08-14T02:37:48.279Z,6.65
2022-08-14T02:40:32.190Z,8.93
2022-08-14T02:43:03.862Z,13.45
2022-08-14T02:45:38.522Z,5.65
2022-08-14T02:49:04.363Z,10.38
2022-08-14T02:51:09.117Z,9.07
2022-08-14T02:53:42.205Z,6.82
2022-08-14T02:56:30.257Z,5.20
2022-08-14T02:59:05.529Z,7.45
2022-08-14T03:01:50.210Z,6.07
2022-08-14T03:04:20.595Z,6.72
2022-08-14T03:07:06.726Z,9.93
2022-08-14T03:10:24.489Z,8.57
2022-08-14T03:12:32.261Z,9.95
2022-08-14T03:15:14.259Z,12.40
2022-08-14T03:17:57.047Z,4.88
2022-08-14T03:20:30.687Z,6.70
2022-08-14T03:23:03.349Z,7.25
2022-08-14T03:25:37.690Z,13.05
2022-08-14T03:28:07.385Z,10.20
2022-08-14T03:30:40.979Z,6.10
2022-08-14T03:33:11.282Z,5.25
2022-08-14T03:36:07.713Z,6.00
2022-08-14T03:39:13.038Z,8.95
2022-08-14T03:41:24.714Z,7.30
2022-08-14T03:44:01.071Z,5.70
2022-08-14T03:46:54.705Z,5.32
2022-08-14T03:49:28.456Z,8.45
2022-08-14T03:52:01.151Z,9.18
2022-08-14T03:54:30.228Z,9.93
2022-08-14T03:57:02.713Z,7.63
2022-08-14T03:59:35.268Z,9.18
2022-08-14T04:02:04.777Z,7.60
2022-08-14T04:04:54.896Z,11.80
2022-08-14T04:09:50.782Z,9.73
2022-08-14T04:12:26.368Z,5.35
2022-08-14T04:14:54.644Z,9.13
2022-08-14T04:17:24.471Z,9.10
2022-08-14T04:19:57.691Z,7.53
2022-08-14T04:22:26.005Z,6.28
2022-08-14T04:24:53.968Z,7.75
2022-08-14T04:27:23.727Z,7.53
2022-08-14T04:29:52.092Z,7.73
2022-08-14T04:33:00.161Z,11.73
2022-08-14T04:35:11.949Z,8.45
2022-08-14T04:38:07.813Z,8.07
2022-08-14T04:41:15.602Z,6.95
2022-08-14T04:43:43.687Z,9.95
2022-08-14T04:46:55.709Z,7.43
2022-08-14T04:49:08.306Z,5.15
2022-08-14T04:51:46.940Z,6.55
2022-08-14T04:54:27.642Z,8.80
2022-08-14T04:56:56.686Z,6.57
2022-08-14T04:59:25.844Z,15.25
2022-08-14T05:01:57.141Z,9.75
2022-08-14T05:06:57.780Z,6.78
2022-08-14T05:09:29.017Z,11.52
2022-08-14T05:13:01.015Z,9.63
2022-08-14T05:14:55.151Z,8.50
2022-08-14T05:17:32.041Z,6.20
2022-08-14T05:21:04.953Z,7.93
2022-08-14T05:23:05.037Z,6.90
2022-08-14T05:25:34.168Z,9.80
2022-08-14T05:28:14.090Z,12.05
2022-08-14T05:31:06.679Z,11.25
2022-08-14T05:33:36.973Z,7.82
2022-08-14T05:36:16.688Z,6.47
2022-08-14T05:38:47.890Z,8.10
2022-08-14T05:41:18.424Z,7.45
2022-08-14T05:43:48.311Z,7.07
2022-08-14T05:46:19.547Z,7.65
2022-08-14T05:48:51.955Z,9.40
2022-08-14T05:51:21.269Z,8.50
2022-08-14T05:54:01.809Z,6.00
2022-08-14T05:56:41.315Z,12.25
2022-08-14T05:59:11.401Z,7.60
2022-08-14T06:01:39.462Z,10.95
2022-08-14T06:04:10.818Z,10.88
2022-08-14T06:06:40.514Z,8.73
2022-08-14T06:09:10.869Z,13.63
2022-08-14T06:11:38.799Z,7.93
2022-08-14T06:14:21.079Z,11.88
2022-08-14T06:16:53.381Z,10.98
2022-08-14T06:19:23.254Z,7.38
2022-08-14T06:21:59.239Z,8.93
2022-08-14T06:24:30.552Z,8.38
2022-08-14T06:27:06.382Z,8.77
2022-08-14T06:29:40.944Z,10.63
2022-08-14T06:32:36.913Z,7.60
2022-08-14T06:35:10.768Z,7.40
2022-08-14T06:37:45.514Z,8.80
2022-08-14T06:40:27.965Z,10.45
2022-08-14T06:43:03.089Z,11.10
2022-08-14T06:45:33.513Z,9.85
2022-08-14T06:48:13.646Z,7.82
2022-08-14T06:50:47.118Z,8.30
2022-08-14T06:53:17.947Z,11.55
2022-08-14T06:55:58.043Z,10.63
2022-08-14T06:58:29.452Z,8.77
2022-08-14T07:01:24.841Z,9.43
2022-08-14T07:04:22.775Z,13.35
2022-08-14T07:06:54.646Z,14.73
2022-08-14T07:09:27.931Z,11.93
2022-08-14T07:11:56.519Z,13.15
2022-08-14T07:14:28.143Z,8.77
2022-08-14T07:16:56.215Z,7.78
2022-08-14T07:19:24.545Z,11.05
2022-08-14T07:21:52.914Z,9.55
2022-08-14T07:24:21.970Z,12.20
2022-08-14T07:26:56.818Z,8.32
2022-08-14T07:29:28.720Z,14.15
2022-08-14T07:31:57.226Z,12.30
2022-08-14T07:34:40.665Z,10.82
2022-08-14T07:37:09.831Z,9.70
2022-08-14T07:39:43.457Z,10.10
2022-08-14T07:42:12.245Z,9.77
2022-08-14T07:44:48.996Z,12.43
2022-08-14T07:47:19.247Z,8.85
2022-08-14T07:50:05.028Z,10.48
2022-08-14T07:52:35.231Z,13.07
2022-08-14T07:55:08.588Z,16.20
2022-08-14T07:57:38.670Z,10.85
2022-08-14T08:00:30.848Z,7.65
2022-08-14T08:03:03.290Z,11.98
2022-08-14T08:05:34.114Z,11.00
2022-08-14T08:08:03.402Z,11.85
2022-08-14T08:10:57.331Z,7.65
2022-08-14T08:13:31.422Z,13.82
2022-08-14T08:16:04.175Z,16.20
2022-08-14T08:18:34.009Z,9.07
2022-08-14T08:21:04.597Z,9.27
2022-08-14T08:26:19.390Z,10.18
2022-08-14T08:28:59.652Z,12.95
2022-08-14T08:31:32.750Z,13.45
2022-08-14T08:34:06.741Z,10.73
2022-08-14T08:36:46.613Z,11.32
2022-08-14T08:39:22.172Z,12.80
2022-08-14T08:41:53.455Z,13.57
2022-08-14T08:44:33.089Z,10.80
2022-08-14T08:47:08.334Z,12.25
2022-08-14T08:49:52.685Z,13.52
2022-08-14T08:52:32.154Z,11.90
2022-08-14T08:55:04.536Z,14.88
2022-08-14T08:57:38.085Z,12.95
2022-08-14T09:00:25.887Z,12.93
2022-08-14T09:02:57.980Z,11.73
2022-08-14T09:05:27.179Z,11.68
2022-08-14T09:07:56.663Z,16.25
2022-08-14T09:10:27.255Z,15.15
2022-08-14T09:12:57.746Z,13.73
2022-08-14T09:15:25.976Z,14.65
2022-08-14T09:18:05.269Z,16.20
2022-08-14T09:20:33.574Z,13.20
2022-08-14T09:23:05.986Z,17.58
2022-08-14T09:26:00.384Z,14.70
2022-08-14T09:28:27.573Z,15.20
2022-08-14T09:30:57.825Z,14.10
2022-08-14T09:33:34.741Z,15.52
2022-08-14T09:36:43.838Z,13.50
2022-08-14T09:39:26.949Z,11.90
2022-08-14T09:42:33.233Z,16.17
2022-08-14T09:45:16.619Z,13.05
2022-08-14T09:47:55.084Z,15.10
2022-08-14T09:50:26.951Z,18.25
2022-08-14T09:52:59.162Z,13.40
2022-08-14T09:55:41.528Z,13.73
2022-08-14T09:58:19.265Z,13.32
2022-08-14T10:00:54.261Z,17.85
2022-08-14T10:03:34.232Z,15.43
2022-08-14T10:06:14.381Z,13.73
2022-08-14T10:09:02.949Z,13.85
2022-08-14T10:11:38.182Z,16.33
2022-08-14T10:14:29.345Z,11.30
2022-08-14T10:17:07.052Z,16.13
2022-08-14T10:19:48.802Z,12.75
2022-08-14T10:23:12.613Z,13.23
2022-08-14T10:25:16.264Z,15.63
2022-08-14T10:27:56.994Z,12.93
2022-08-14T10:30:37.011Z,12.40
2022-08-14T10:33:09.919Z,14.23
2022-08-14T10:35:47.862Z,14.10
2022-08-14T10:38:28.012Z,12.73
2022-08-14T10:40:59.498Z,16.60
2022-08-14T10:43:31.601Z,13.82
2022-08-14T10:46:21.390Z,13.05
2022-08-14T10:49:04.460Z,15.00
2022-08-14T10:51:41.634Z,14.10
2022-08-14T10:54:26.155Z,18.75
2022-08-14T10:57:18.878Z,14.80
2022-08-14T11:00:20.630Z,19.02
2022-08-14T11:03:19.827Z,12.43
2022-08-14T11:05:56.219Z,13.48
2022-08-14T11:08:32.987Z,12.55
2022-08-14T11:11:05.765Z,15.60
2022-08-14T11:13:34.882Z,12.55
2022-08-14T11:16:05.857Z,16.65
2022-08-14T11:18:40.477Z,14.40
2022-08-14T11:21:10.591Z,13.90
2022-08-14T11:23:43.690Z,13.93
2022-08-14T11:26:19.602Z,19.50
2022-08-14T11:28:50.361Z,16.25
2022-08-14T11:31:24.389Z,17.73
2022-08-14T11:33:58.614Z,12.68
2022-08-14T11:37:02.467Z,17.13
2022-08-14T11:39:35.222Z,13.27
2022-08-14T11:42:58.216Z,15.18
2022-08-14T11:45:10.956Z,14.60
2022-08-14T11:47:44.122Z,17.02
2022-08-14T11:50:37.055Z,20.50
2022-08-14T11:53:08.149Z,17.27
2022-08-14T11:55:41.348Z,19.35
2022-08-14T11:58:23.690Z,15.13
2022-08-14T12:01:00.177Z,15.55
2022-08-14T12:03:51.408Z,14.52
2022-08-14T12:06:28.682Z,14.10
2022-08-14T12:09:08.575Z,18.50
2022-08-14T12:11:47.052Z,17.52
2022-08-14T12:14:30.733Z,18.17
2022-08-14T12:17:12.294Z,16.88
2022-08-14T12:19:51.581Z,18.15
2022-08-14T12:22:45.396Z,14.90
2022-08-14T12:25:24.702Z,19.30
2022-08-14T12:27:59.089Z,16.85
2022-08-14T12:30:38.046Z,15.65
2022-08-14T12:33:31.220Z,19.30
2022-08-14T12:36:08.362Z,16.10
2022-08-14T12:38:45.084Z,15.60
2022-08-14T12:41:21.727Z,14.57
2022-08-14T12:43:55.588Z,20.50
2022-08-14T12:46:27.411Z,16.35
2022-08-14T12:49:04.715Z,13.30
2022-08-14T12:51:33.844Z,22.75
2022-08-14T12:54:27.416Z,16.50
2022-08-14T12:57:20.604Z,19.63
2022-08-14T12:59:50.639Z,17.05
2022-08-14T13:02:25.252Z,10.85
2022-08-14T13:04:56.847Z,16.92
2022-08-14T13:07:32.562Z,18.20
2022-08-14T13:10:12.901Z,13.13
2022-08-14T13:13:15.747Z,19.40
2022-08-14T13:15:46.388Z,14.10
2022-08-14T13:18:17.305Z,13.85
2022-08-14T13:20:48.155Z,16.88
2022-08-14T13:23:31.943Z,11.55
2022-08-14T13:26:01.550Z,13.45
2022-08-14T13:28:41.192Z,18.05
2022-08-14T13:31:30.157Z,15.52
2022-08-14T13:34:00.480Z,14.82
2022-08-14T13:36:51.991Z,16.25
2022-08-14T13:39:21.459Z,17.88
2022-08-14T13:41:55.952Z,14.55
2022-08-14T13:44:28.004Z,18.30
2022-08-14T13:46:56.355Z,19.45
2022-08-14T13:49:24.944Z,11.57
2022-08-14T13:51:59.301Z,16.05
2022-08-14T13:54:31.606Z,13.98
2022-08-14T13:57:03.987Z,14.48
2022-08-14T13:59:37.259Z,14.82
2022-08-14T14:02:08.509Z,12.40
2022-08-14T14:04:46.350Z,11.70
2022-08-14T14:07:23.586Z,10.02
2022-08-14T14:09:56.516Z,11.38
2022-08-14T14:12:38.550Z,10.82
2022-08-14T14:15:12.605Z,12.30
2022-08-14T14:17:44.458Z,13.32
2022-08-14T14:20:35.854Z,11.95
2022-08-14T14:23:12.154Z,11.02
2022-08-14T14:25:49.207Z,11.32
2022-08-14T14:28:32.146Z,9.38
2022-08-14T14:31:06.150Z,12.15
2022-08-14T14:33:52.367Z,9.85
2022-08-14T14:36:27.997Z,9.50
2022-08-14T14:39:01.670Z,9.57
2022-08-14T14:41:37.961Z,8.43
2022-08-14T14:44:09.585Z,8.27
2022-08-14T14:46:53.120Z,8.93
2022-08-14T14:49:51.261Z,7.38
2022-08-14T14:52:37.073Z,8.07
2022-08-14T14:55:17.054Z,7.30
2022-08-14T14:57:57.503Z,8.40
2022-08-14T15:06:47.843Z,7.75
2022-08-14T15:09:36.595Z,11.60
2022-08-14T15:12:55.574Z,9.48
2022-08-14T15:15:18.638Z,10.25
2022-08-14T15:17:50.462Z,6.40
2022-08-14T15:20:48.398Z,6.05
2022-08-14T15:23:43.677Z,10.07
2022-08-14T15:26:23.945Z,7.13
2022-08-14T15:29:09.343Z,5.65
2022-08-14T15:31:38.750Z,6.47
2022-08-14T15:34:44.380Z,4.18
2022-08-14T15:37:24.456Z,6.10
2022-08-14T15:40:22.336Z,7.72
2022-08-14T15:43:46.745Z,7.97
2022-08-14T15:46:43.129Z,5.85
2022-08-14T15:49:36.657Z,6.32
2022-08-14T15:52:35.425Z,7.38
2022-08-14T15:55:32.802Z,5.25
2022-08-14T15:58:14.269Z,6.28
2022-08-14T16:01:19.360Z,9.32
2022-08-14T16:04:27.749Z,8.95
2022-08-14T16:07:09.957Z,8.75
2022-08-14T16:10:11.887Z,10.35
2022-08-14T16:12:47.419Z,12.15
2022-08-14T16:15:33.070Z,12.02
2022-08-14T16:18:20.502Z,12.25
2022-08-14T16:21:00.641Z,6.43
2022-08-14T16:23:35.926Z,8.23
2022-08-14T16:26:19.414Z,10.55
2022-08-14T16:32:32.798Z,11.05
2022-08-14T16:34:59.100Z,9.35
2022-08-14T16:37:45.632Z,6.28
2022-08-14T16:40:38.995Z,7.70
2022-08-14T16:43:21.021Z,8.93
2022-08-14T16:45:56.329Z,9.50
2022-08-14T16:48:55.555Z,8.40
2022-08-14T16:51:20.779Z,9.85
2022-08-14T16:53:53.870Z,10.82
2022-08-14T16:56:39.653Z,12.07
2022-08-14T16:59:17.068Z,6.90
2022-08-14T17:02:05.095Z,9.48
2022-08-14T17:05:16.308Z,12.27
2022-08-14T17:08:33.028Z,16.48
2022-08-14T17:11:23.016Z,10.25
2022-08-14T17:14:01.335Z,10.57
2022-08-14T17:20:30.996Z,8.93
2022-08-14T17:23:11.155Z,8.88
2022-08-14T17:28:51.535Z,9.43
2022-08-14T17:34:57.757Z,11.07
2022-08-14T17:37:46.011Z,9.15
2022-08-14T17:41:07.405Z,12.20
2022-08-14T17:43:43.113Z,8.65
2022-08-14T17:46:55.225Z,8.13
2022-08-14T17:49:35.586Z,8.02
2022-08-14T17:52:33.960Z,14.07
2022-08-14T17:56:02.784Z,10.10
2022-08-14T17:58:42.041Z,12.70
2022-08-14T18:01:14.085Z,10.95
2022-08-14T18:03:53.721Z,9.93
2022-08-14T18:07:06.118Z,13.23
2022-08-14T18:10:52.118Z,15.65
2022-08-14T18:13:49.866Z,12.93
2022-08-14T18:16:26.392Z,15.73
2022-08-14T18:19:14.212Z,11.00
2022-08-14T18:21:57.519Z,16.58
2022-08-14T18:25:02.648Z,45.40
2022-08-14T18:27:51.672Z,21.10
2022-08-14T18:30:40.379Z,48.17
2022-08-14T18:33:34.170Z,38.88
2022-08-14T18:36:47.516Z,18.42
2022-08-14T18:40:01.459Z,57.53
2022-08-14T18:43:08.651Z,42.95
2022-08-14T18:46:06.079Z,20.67
2022-08-14T18:49:26.591Z,19.95
2022-08-14T18:52:18.706Z,19.42
2022-08-14T18:55:08.301Z,17.60
2022-08-14T18:58:01.019Z,17.63
2022-08-14T19:00:55.360Z,18.20
2022-08-14T19:03:46.279Z,36.38
2022-08-14T19:06:16.737Z,20.60
2022-08-14T19:08:51.999Z,34.13
2022-08-14T19:15:05.871Z,36.75
2022-08-14T19:18:14.839Z,23.55
2022-08-14T19:21:03.431Z,20.70
2022-08-14T19:24:27.448Z,19.90
2022-08-14T19:30:20.325Z,15.23
2022-08-14T19:35:59.878Z,17.17
2022-08-14T19:38:54.873Z,15.95
2022-08-14T19:41:35.467Z,14.40
2022-08-14T19:47:41.532Z,20.33
2022-08-14T19:50:38.028Z,11.57
2022-08-14T19:53:18.758Z,18.48
2022-08-14T19:56:11.187Z,12.73
2022-08-14T19:59:09.971Z,17.27
2022-08-14T20:01:51.392Z,17.90
2022-08-14T20:04:47.494Z,22.05
2022-08-14T20:07:59.779Z,15.85
2022-08-14T20:11:06.554Z,16.15
2022-08-14T20:14:29.730Z,18.75
2022-08-14T20:17:27.645Z,20.77
2022-08-14T20:20:33.418Z,14.75
2022-08-14T20:23:22.947Z,15.65
2022-08-14T20:26:10.572Z,13.25
2022-08-14T20:28:51.355Z,21.25
2022-08-14T20:31:37.193Z,9.73
2022-08-14T20:34:24.907Z,14.73
2022-08-14T20:37:22.454Z,13.35
2022-08-14T20:40:24.515Z,10.35
2022-08-14T20:43:17.034Z,12.25
2022-08-14T20:45:57.892Z,12.55
2022-08-14T20:49:10.699Z,14.00
2022-08-14T20:55:09.837Z,12.80
2022-08-14T20:57:48.565Z,13.82
2022-08-14T21:00:52.122Z,10.50
2022-08-14T21:04:05.170Z,9.43
2022-08-14T21:07:25.469Z,10.32
2022-08-14T21:10:05.248Z,10.68
2022-08-14T21:14:08.944Z,13.65
2022-08-14T21:15:59.917Z,10.88
2022-08-14T21:18:47.588Z,13.90
2022-08-14T21:21:40.531Z,15.90
2022-08-14T21:25:02.833Z,15.98
2022-08-14T21:27:42.057Z,12.13
2022-08-14T21:30:58.029Z,10.77
2022-08-14T21:33:37.978Z,11.18
2022-08-14T21:36:30.934Z,14.95
2022-08-14T21:39:34.844Z,14.68
2022-08-14T21:42:14.411Z,13.00
2022-08-14T21:45:15.532Z,9.77
2022-08-14T21:48:10.681Z,13.85
2022-08-14T21:51:00.282Z,12.75
2022-08-14T21:54:04.205Z,14.15
2022-08-14T21:56:41.416Z,11.00
2022-08-14T22:02:38.722Z,12.80
2022-08-14T22:05:23.657Z,12.05
2022-08-14T22:07:59.648Z,11.98
2022-08-14T22:10:59.218Z,13.35
2022-08-14T22:13:46.692Z,11.77
2022-08-14T22:17:00.111Z,12.68
2022-08-14T22:19:43.307Z,15.00
2022-08-14T22:22:45.570Z,12.98
2022-08-14T22:25:33.245Z,13.45
2022-08-14T22:28:33.053Z,9.98
2022-08-14T22:31:18.366Z,13.55
2022-08-14T22:34:06.605Z,12.55
2022-08-14T22:36:51.231Z,12.45
2022-08-14T22:40:17.105Z,17.20
2022-08-14T22:45:07.388Z,12.52
2022-08-14T22:47:46.723Z,11.20
2022-08-14T22:50:31.016Z,16.83
2022-08-14T22:53:11.208Z,16.00
2022-08-14T22:55:55.590Z,16.48
2022-08-14T22:58:35.382Z,14.27
2022-08-14T23:01:22.681Z,17.67
2022-08-14T23:04:04.519Z,13.23
2022-08-14T23:07:03.027Z,17.60
2022-08-14T23:09:55.924Z,15.25
2022-08-14T23:12:34.989Z,12.90
2022-08-14T23:15:19.775Z,12.65
2022-08-14T23:17:54.673Z,13.32
2022-08-14T23:20:29.455Z,14.38
2022-08-14T23:23:22.646Z,14.30
2022-08-14T23:26:47.670Z,13.27
2022-08-14T23:29:24.625Z,12.68
2022-08-14T23:32:15.483Z,13.65
2022-08-14T23:35:11.535Z,17.40
2022-08-14T23:41:23.821Z,15.10
2022-08-14T23:44:13.654Z,11.55
2022-08-14T23:46:52.738Z,16.40
2022-08-14T23:49:55.378Z,16.55
2022-08-14T23:53:07.454Z,16.77
2022-08-14T23:55:42.060Z,12.50
2022-08-14T23:58:31.514Z,13.73
